LIMJ/GOA METAR and TAF weather

Enter ICAO airport designator
Station Type Date Time Source
LIMJ METAR 2019/02/16 06:50 UTC NOAA

LIMJ 160650Z 03007KT 010V070 9000 NSC 11/00 Q1030


Station Type Date Time Source
LIMJ Decoded METAR 2019/02/16 06:50 UTC NOAA

Genova / Sestri, Italy (LIMJ) 44-25N 008-51E 3M
Feb 16, 2019 - 01:50 AM EST / 2019.02.16 0650 UTC
Wind: from the NNE (030 degrees) at 8 MPH (7 KT) (direction variable):0
Visibility: 5 mile(s):0
Temperature: 51 F (11 C)
Dew Point: 32 F (0 C)
Relative Humidity: 46%
Pressure (altimeter): 30.42 in. Hg (1030 hPa)
ob: LIMJ 160650Z 03007KT 010V070 9000 NSC 11/00 Q1030
cycle: 7

Station Type Date Time Source
LIMJ TAF 2019/02/16 06:22 UTC NOAA

TAF LIMJ 160500Z 1606/1706 03006KT CAVOK


Example: see airport list